< < Back
Terminal Aerodrome Forecast


Current Version              Previous Versions:   1  2  3  4  5  6  7  8  9  

Terminal Aerodrome Forecast

718
FTUS42 KTAE 201100
TAFDHN
TAF
KDHN 201136Z 2012/2112 05007KT P6SM BKN011
     FM201600 05010KT P6SM BKN030
     FM201800 06010KT P6SM SCT040=



Latest METAR

789
SAUS70 KWBC 202000 RRC
MTRDHN
METAR KDHN 201953Z 05006KT 10SM FEW036 BKN047 27/19 A3003 RMK AO2 SLP162
T02670194


USA.gov is the U.S. government's official web portal to all federal, state and local government web resources and services.